createdAt,value
2023-04-13T00:00:35.293Z,23.75
2023-04-13T00:03:24.744Z,24.05
2023-04-13T00:06:13.648Z,23.05
2023-04-13T00:09:04.182Z,25.50
2023-04-13T00:11:55.309Z,25.75
2023-04-13T00:14:46.729Z,29.40
2023-04-13T00:17:35.697Z,25.58
2023-04-13T00:20:24.435Z,27.73
2023-04-13T00:23:13.133Z,28.52
2023-04-13T00:26:03.739Z,29.30
2023-04-13T00:28:52.679Z,29.10
2023-04-13T00:31:41.893Z,30.52
2023-04-13T00:34:31.825Z,38.95
2023-04-13T00:37:22.076Z,33.15
2023-04-13T00:40:12.464Z,32.22
2023-04-13T00:43:02.677Z,31.48
2023-04-13T00:45:51.672Z,29.23
2023-04-13T00:48:41.299Z,32.80
2023-04-13T00:51:31.428Z,32.30
2023-04-13T00:54:20.580Z,28.17
2023-04-13T00:57:09.673Z,30.77
2023-04-13T01:00:00.010Z,31.13
2023-04-13T01:02:50.881Z,30.08
2023-04-13T01:05:49.131Z,32.17
2023-04-13T01:08:45.644Z,36.00
2023-04-13T01:11:40.532Z,32.30
2023-04-13T01:14:34.613Z,32.90
2023-04-13T01:17:30.856Z,33.75
2023-04-13T01:20:20.482Z,29.77
2023-04-13T01:23:11.035Z,31.02
2023-04-13T01:26:07.166Z,31.80
2023-04-13T01:28:58.363Z,35.47
2023-04-13T01:31:47.312Z,31.48
2023-04-13T01:34:37.743Z,34.15
2023-04-13T01:37:29.784Z,34.80
2023-04-13T01:40:20.586Z,37.13
2023-04-13T01:43:14.324Z,34.58
2023-04-13T01:46:14.784Z,34.17
2023-04-13T01:49:21.548Z,32.92
2023-04-13T01:52:27.959Z,32.50
2023-04-13T01:55:17.027Z,35.92
2023-04-13T01:58:13.216Z,32.17
2023-04-13T02:01:07.922Z,31.83
2023-04-13T02:03:58.606Z,36.80
2023-04-13T02:06:52.848Z,34.10
2023-04-13T02:09:48.538Z,33.58
2023-04-13T02:12:38.275Z,33.55
2023-04-13T02:15:28.067Z,40.05
2023-04-13T02:18:16.769Z,37.05
2023-04-13T02:21:09.901Z,32.20
2023-04-13T02:23:58.995Z,31.98
2023-04-13T02:26:47.834Z,31.95
2023-04-13T02:29:36.740Z,33.53
2023-04-13T02:32:25.652Z,30.80
2023-04-13T02:35:14.688Z,36.55
2023-04-13T02:38:09.815Z,33.60
2023-04-13T02:41:02.953Z,34.80
2023-04-13T02:43:52.510Z,35.83
2023-04-13T02:46:44.833Z,31.77
2023-04-13T02:49:37.859Z,31.65
2023-04-13T02:52:44.115Z,37.58
2023-04-13T02:55:34.356Z,35.85
2023-04-13T02:58:32.006Z,34.10
2023-04-13T03:01:26.072Z,35.72
2023-04-13T03:04:16.212Z,33.60
2023-04-13T03:07:10.069Z,40.10
2023-04-13T03:10:05.681Z,35.80
2023-04-13T03:12:56.417Z,35.88
2023-04-13T03:15:46.728Z,35.30
2023-04-13T03:18:37.521Z,31.15
2023-04-13T03:21:27.842Z,34.63
2023-04-13T03:24:31.211Z,35.17
2023-04-13T03:27:26.292Z,34.42
2023-04-13T03:30:18.777Z,32.38
2023-04-13T03:33:15.192Z,32.47
2023-04-13T03:36:05.489Z,34.10
2023-04-13T03:38:58.745Z,32.47
2023-04-13T03:41:52.829Z,33.88
2023-04-13T03:44:41.918Z,33.40
2023-04-13T03:47:32.416Z,37.40
2023-04-13T03:50:21.460Z,33.78
2023-04-13T03:53:12.252Z,44.75
2023-04-13T03:56:04.437Z,36.67
2023-04-13T03:58:55.042Z,39.38
2023-04-13T04:01:47.369Z,34.78
2023-04-13T04:04:37.813Z,43.17
2023-04-13T04:07:27.493Z,42.05
2023-04-13T04:10:17.902Z,39.53
2023-04-13T04:13:07.519Z,43.65
2023-04-13T04:16:04.726Z,38.10
2023-04-13T04:18:55.717Z,41.03
2023-04-13T04:21:47.087Z,39.50
2023-04-13T04:24:38.677Z,41.92
2023-04-13T04:27:27.517Z,38.40
2023-04-13T04:30:22.449Z,38.08
2023-04-13T04:33:11.393Z,45.53
2023-04-13T04:36:02.452Z,37.67
2023-04-13T04:39:03.061Z,42.17
2023-04-13T04:42:03.763Z,40.13
2023-04-13T04:44:53.748Z,39.90
2023-04-13T04:47:43.850Z,35.17
2023-04-13T04:50:44.899Z,35.15
2023-04-13T04:53:37.016Z,37.70
2023-04-13T04:56:31.232Z,37.42
2023-04-13T04:59:20.958Z,38.90
2023-04-13T05:02:19.973Z,36.15
2023-04-13T05:05:09.602Z,37.40
2023-04-13T05:08:02.746Z,33.33
2023-04-13T05:10:51.946Z,36.05
2023-04-13T05:13:43.184Z,33.13
2023-04-13T05:16:42.382Z,30.67
2023-04-13T05:19:57.397Z,30.38
2023-04-13T05:22:59.348Z,32.10
2023-04-13T05:25:49.400Z,33.42
2023-04-13T05:28:43.702Z,31.38
2023-04-13T05:31:33.393Z,28.90
2023-04-13T05:34:22.762Z,30.98
2023-04-13T05:37:27.320Z,28.08
2023-04-13T05:40:17.183Z,26.02
2023-04-13T05:43:06.597Z,29.60
2023-04-13T05:46:02.668Z,24.30
2023-04-13T05:48:51.962Z,24.80
2023-04-13T05:51:41.230Z,29.73
2023-04-13T05:54:30.456Z,31.35
2023-04-13T05:57:21.076Z,31.13
2023-04-13T06:00:13.179Z,28.20
2023-04-13T06:03:20.887Z,31.02
2023-04-13T06:06:10.547Z,29.95
2023-04-13T06:08:59.963Z,32.38
2023-04-13T06:11:50.245Z,30.35
2023-04-13T06:14:40.100Z,32.85
2023-04-13T06:17:29.059Z,33.20
2023-04-13T06:20:19.268Z,36.70
2023-04-13T06:23:09.495Z,29.45
2023-04-13T06:25:58.517Z,33.35
2023-04-13T06:29:04.826Z,25.75
2023-04-13T06:32:06.733Z,27.65
2023-04-13T06:34:56.818Z,30.65
2023-04-13T06:37:47.416Z,25.30
2023-04-13T06:40:42.112Z,27.23
2023-04-13T06:43:31.970Z,40.08
2023-04-13T06:46:35.669Z,30.35
2023-04-13T06:49:33.376Z,29.70
2023-04-13T06:52:23.463Z,22.85
2023-04-13T06:55:14.048Z,25.25
2023-04-13T06:58:03.487Z,25.13
2023-04-13T07:00:52.475Z,23.75
2023-04-13T07:03:41.892Z,21.23
2023-04-13T07:06:32.191Z,20.58
2023-04-13T07:09:21.153Z,20.52
2023-04-13T07:12:12.075Z,22.17
2023-04-13T07:15:01.291Z,21.77
2023-04-13T07:17:52.745Z,20.50
2023-04-13T07:20:41.619Z,20.50
2023-04-13T07:23:32.135Z,19.05
2023-04-13T07:26:23.198Z,21.67
2023-04-13T07:29:14.506Z,21.58
2023-04-13T07:32:09.478Z,19.45
2023-04-13T07:35:02.126Z,23.48
2023-04-13T07:37:53.765Z,20.83
2023-04-13T07:40:43.806Z,20.90
2023-04-13T07:43:35.470Z,19.42
2023-04-13T07:46:29.887Z,23.17
2023-04-13T07:49:19.017Z,22.48
2023-04-13T07:52:08.996Z,20.58
2023-04-13T07:54:59.694Z,18.48
2023-04-13T07:57:49.695Z,19.17
2023-04-13T08:00:42.414Z,16.48
2023-04-13T08:03:34.477Z,18.63
2023-04-13T08:06:27.267Z,16.23
2023-04-13T08:09:16.602Z,16.20
2023-04-13T08:12:06.155Z,17.67
2023-04-13T08:14:57.174Z,19.13
2023-04-13T08:17:46.937Z,18.17
2023-04-13T08:20:39.420Z,17.95
2023-04-13T08:23:28.990Z,17.92
2023-04-13T08:26:20.731Z,14.77
2023-04-13T08:29:10.582Z,16.65
2023-04-13T08:31:59.781Z,14.95
2023-04-13T08:34:50.755Z,18.80
2023-04-13T08:37:41.997Z,19.95
2023-04-13T08:40:32.146Z,18.27
2023-04-13T08:43:21.514Z,15.68
2023-04-13T08:46:11.468Z,15.50
2023-04-13T08:49:02.081Z,13.80
2023-04-13T08:52:01.728Z,14.25
2023-04-13T08:54:52.337Z,13.77
2023-04-13T08:57:49.479Z,12.85
2023-04-13T09:00:41.806Z,14.18
2023-04-13T09:03:38.136Z,12.93
2023-04-13T09:06:35.756Z,15.00
2023-04-13T09:09:28.602Z,13.68
2023-04-13T09:12:19.128Z,13.93
2023-04-13T09:15:09.266Z,13.48
2023-04-13T09:18:11.336Z,13.02
2023-04-13T09:21:10.123Z,14.48
2023-04-13T09:24:00.646Z,14.35
2023-04-13T09:26:50.793Z,13.63
2023-04-13T09:29:51.637Z,13.85
2023-04-13T09:32:43.178Z,13.57
2023-04-13T09:35:32.768Z,15.57
2023-04-13T09:38:32.154Z,14.10
2023-04-13T09:41:30.930Z,11.32
2023-04-13T09:44:22.441Z,12.55
2023-04-13T09:47:13.091Z,15.45
2023-04-13T09:50:02.117Z,12.50
2023-04-13T09:53:01.081Z,14.48
2023-04-13T09:55:59.131Z,12.68
2023-04-13T09:58:49.601Z,11.93
2023-04-13T10:01:39.212Z,12.77
2023-04-13T10:04:32.407Z,10.25
2023-04-13T10:07:26.929Z,11.07
2023-04-13T10:10:17.133Z,10.73
2023-04-13T10:13:21.051Z,10.38
2023-04-13T10:16:24.077Z,10.73
2023-04-13T10:19:15.089Z,11.23
2023-04-13T10:22:09.073Z,11.10
2023-04-13T10:24:58.562Z,11.07
2023-04-13T10:27:57.519Z,10.00
2023-04-13T10:30:51.071Z,10.82
2023-04-13T10:33:49.377Z,12.95
2023-04-13T10:36:41.769Z,11.95
2023-04-13T10:39:33.740Z,11.88
2023-04-13T10:42:25.257Z,9.73
2023-04-13T10:45:21.500Z,9.88
2023-04-13T10:48:21.877Z,9.00
2023-04-13T10:51:11.089Z,8.82
2023-04-13T10:54:05.581Z,8.73
2023-04-13T10:56:59.754Z,10.80
2023-04-13T10:59:58.048Z,10.10
2023-04-13T11:02:49.842Z,10.25
2023-04-13T11:05:42.436Z,8.07
2023-04-13T11:08:32.783Z,8.60
2023-04-13T11:11:26.603Z,8.32
2023-04-13T11:14:23.735Z,9.85
2023-04-13T11:17:16.863Z,10.60
2023-04-13T11:20:11.306Z,10.95
2023-04-13T11:23:00.342Z,9.65
2023-04-13T11:25:58.409Z,11.57
2023-04-13T11:28:48.616Z,11.00
2023-04-13T11:31:40.465Z,9.43
2023-04-13T11:34:30.130Z,9.63
2023-04-13T11:37:19.936Z,8.35
2023-04-13T11:40:13.017Z,12.18
2023-04-13T11:43:02.207Z,9.73
2023-04-13T11:45:51.124Z,8.50
2023-04-13T11:48:42.421Z,8.75
2023-04-13T11:51:32.411Z,8.80
2023-04-13T11:54:21.353Z,8.85
2023-04-13T11:57:10.848Z,9.23
2023-04-13T11:59:59.801Z,9.82
2023-04-13T12:03:01.341Z,10.48
2023-04-13T12:06:02.464Z,9.15
2023-04-13T12:08:56.763Z,9.48
2023-04-13T12:11:51.866Z,14.02
2023-04-13T12:15:12.675Z,10.75
2023-04-13T12:18:14.312Z,7.88
2023-04-13T12:21:06.518Z,7.72
2023-04-13T12:23:56.127Z,7.70
2023-04-13T12:29:40.040Z,8.57
2023-04-13T12:32:29.326Z,8.75
2023-04-13T12:35:19.501Z,8.45
2023-04-13T12:38:09.673Z,8.43
2023-04-13T12:40:58.644Z,7.18
2023-04-13T12:43:47.392Z,5.35
2023-04-13T12:46:36.304Z,7.38
2023-04-13T12:49:25.927Z,5.05
2023-04-13T12:52:14.800Z,7.63
2023-04-13T12:55:05.621Z,6.70
2023-04-13T12:57:54.426Z,6.25
2023-04-13T13:00:43.463Z,7.28
2023-04-13T13:03:32.634Z,8.60
2023-04-13T13:06:21.489Z,7.47
2023-04-13T13:09:10.556Z,8.13
2023-04-13T13:12:00.938Z,7.45
2023-04-13T13:14:50.067Z,7.60
2023-04-13T13:17:40.960Z,6.57
2023-04-13T13:20:29.881Z,8.95
2023-04-13T13:23:19.720Z,5.07
2023-04-13T13:26:23.047Z,4.60
2023-04-13T13:29:15.502Z,5.32
2023-04-13T13:32:04.421Z,5.00
2023-04-13T13:34:53.224Z,4.70
2023-04-13T13:37:41.956Z,6.65
2023-04-13T13:40:31.250Z,4.40
2023-04-13T13:43:21.574Z,4.47
2023-04-13T13:46:12.298Z,6.25
2023-04-13T13:49:02.344Z,4.38
2023-04-13T13:52:10.702Z,4.95
2023-04-13T13:55:12.240Z,5.43
2023-04-13T13:58:01.129Z,3.70
2023-04-13T14:00:50.878Z,4.13
2023-04-13T14:03:41.219Z,3.30
2023-04-13T14:06:30.005Z,6.85
2023-04-13T14:09:19.462Z,7.35
2023-04-13T14:12:08.780Z,5.47
2023-04-13T14:14:57.615Z,4.85
2023-04-13T14:17:55.513Z,3.47
2023-04-13T14:20:58.047Z,4.90
2023-04-13T14:23:47.120Z,4.60
2023-04-13T14:26:36.517Z,4.25
2023-04-13T14:29:27.353Z,3.78
2023-04-13T14:32:30.133Z,5.30
2023-04-13T14:35:19.037Z,3.50
2023-04-13T14:38:09.928Z,3.60
2023-04-13T14:40:58.912Z,7.50
2023-04-13T14:43:48.025Z,3.80
2023-04-13T14:46:37.285Z,4.78
2023-04-13T14:49:26.361Z,4.25
2023-04-13T14:52:15.612Z,3.22
2023-04-13T14:55:06.611Z,3.40
2023-04-13T14:57:58.443Z,3.55
2023-04-13T15:00:47.372Z,3.38
2023-04-13T15:03:36.833Z,4.20
2023-04-13T15:06:27.666Z,4.07
2023-04-13T15:09:16.858Z,4.13
2023-04-13T15:12:12.622Z,6.55
2023-04-13T15:15:02.411Z,5.28
2023-04-13T15:17:52.099Z,5.72
2023-04-13T15:20:40.896Z,5.30
2023-04-13T15:23:29.690Z,4.20
2023-04-13T15:26:19.131Z,4.82
2023-04-13T15:29:10.584Z,6.40
2023-04-13T15:31:59.904Z,5.22
2023-04-13T15:34:49.739Z,5.80
2023-04-13T15:37:38.392Z,7.45
2023-04-13T15:40:28.108Z,6.20
2023-04-13T15:43:16.897Z,4.97
2023-04-13T15:46:07.196Z,5.93
2023-04-13T15:48:56.449Z,6.30
2023-04-13T15:51:45.520Z,6.57
2023-04-13T15:54:34.576Z,4.20
2023-04-13T15:57:23.640Z,4.65
2023-04-13T16:00:13.557Z,5.65
2023-04-13T16:03:04.125Z,6.13
2023-04-13T16:05:53.630Z,5.18
2023-04-13T16:08:42.445Z,4.57
2023-04-13T16:11:32.517Z,4.97
2023-04-13T16:14:21.664Z,5.13
2023-04-13T16:17:10.602Z,4.32
2023-04-13T16:20:18.402Z,5.45
2023-04-13T16:23:07.592Z,6.72
2023-04-13T16:25:56.859Z,8.02
2023-04-13T16:28:46.154Z,7.93
2023-04-13T16:31:35.024Z,8.05
2023-04-13T16:34:26.472Z,9.38
2023-04-13T16:37:17.386Z,6.82
2023-04-13T16:40:09.007Z,5.43
2023-04-13T16:42:58.208Z,7.10
2023-04-13T16:45:47.298Z,5.28
2023-04-13T16:48:36.097Z,4.65
2023-04-13T16:51:27.193Z,6.70
2023-04-13T16:54:18.319Z,5.05
2023-04-13T16:57:07.561Z,6.30
2023-04-13T16:59:57.586Z,5.90
2023-04-13T17:02:47.234Z,5.85
2023-04-13T17:05:36.097Z,6.50
2023-04-13T17:08:25.715Z,5.47
2023-04-13T17:11:18.417Z,5.10
2023-04-13T17:14:07.714Z,6.25
2023-04-13T17:16:56.828Z,7.00
2023-04-13T17:19:45.880Z,6.75
2023-04-13T17:22:35.067Z,8.40
2023-04-13T17:25:27.622Z,12.57
2023-04-13T17:28:17.807Z,14.40
2023-04-13T17:31:07.784Z,10.13
2023-04-13T17:33:58.206Z,10.93
2023-04-13T17:36:50.200Z,10.05
2023-04-13T17:39:42.343Z,14.32
2023-04-13T17:42:31.218Z,16.00
2023-04-13T17:45:21.876Z,10.27
2023-04-13T17:48:11.182Z,15.50
2023-04-13T17:51:00.062Z,12.70
2023-04-13T17:53:49.043Z,15.32
2023-04-13T17:56:38.166Z,14.05
2023-04-13T17:59:27.392Z,12.95
2023-04-13T18:02:17.743Z,13.93
2023-04-13T18:05:07.872Z,13.23
2023-04-13T18:07:56.884Z,11.85
2023-04-13T18:10:46.490Z,16.02
2023-04-13T18:13:35.626Z,18.02
2023-04-13T18:16:25.593Z,20.50
2023-04-13T18:19:16.427Z,18.67
2023-04-13T18:22:05.551Z,15.65
2023-04-13T18:24:55.644Z,16.50
2023-04-13T18:27:44.636Z,21.17
2023-04-13T18:30:33.730Z,22.05
2023-04-13T18:33:22.748Z,14.18
2023-04-13T18:36:16.411Z,17.20
2023-04-13T18:39:05.401Z,15.63
2023-04-13T18:41:54.325Z,20.27
2023-04-13T18:44:43.395Z,17.98
2023-04-13T18:47:32.424Z,18.90
2023-04-13T18:50:21.462Z,21.17
2023-04-13T18:53:12.043Z,21.63
2023-04-13T18:56:01.228Z,21.38
2023-04-13T18:58:50.172Z,19.77
2023-04-13T19:01:39.109Z,15.82
2023-04-13T19:04:28.187Z,24.45
2023-04-13T19:07:17.367Z,18.00
2023-04-13T19:10:08.539Z,25.52
2023-04-13T19:12:57.411Z,22.05
2023-04-13T19:15:47.139Z,21.77
2023-04-13T19:18:36.143Z,25.77
2023-04-13T19:21:25.200Z,22.95
2023-04-13T19:24:14.411Z,21.95
2023-04-13T19:27:04.673Z,23.73
2023-04-13T19:29:53.533Z,23.33
2023-04-13T19:32:44.494Z,27.50
2023-04-13T19:35:33.718Z,28.65
2023-04-13T19:38:22.639Z,22.98
2023-04-13T19:41:11.490Z,21.77
2023-04-13T19:44:02.372Z,23.77
2023-04-13T19:46:51.586Z,28.52
2023-04-13T19:49:40.386Z,26.42
2023-04-13T19:52:29.073Z,23.40
2023-04-13T19:55:17.973Z,22.75
2023-04-13T19:58:07.037Z,24.92
2023-04-13T20:00:57.775Z,26.75
2023-04-13T20:03:47.379Z,21.63
2023-04-13T20:06:36.681Z,24.48
2023-04-13T20:09:25.560Z,25.05
2023-04-13T20:12:14.586Z,29.08
2023-04-13T20:15:04.654Z,23.23
2023-04-13T20:17:55.082Z,25.63
2023-04-13T20:20:44.490Z,22.10
2023-04-13T20:23:34.599Z,21.52
2023-04-13T20:26:27.897Z,25.05
2023-04-13T20:29:21.896Z,20.55
2023-04-13T20:32:10.745Z,23.83
2023-04-13T20:35:01.048Z,22.17
2023-04-13T20:37:51.257Z,20.15
2023-04-13T20:40:41.951Z,22.85
2023-04-13T20:43:30.916Z,21.40
2023-04-13T20:46:21.746Z,21.63
2023-04-13T20:49:12.050Z,20.05
2023-04-13T20:52:02.537Z,26.00
2023-04-13T20:54:53.416Z,21.30
2023-04-13T20:57:42.670Z,16.73
2023-04-13T21:00:32.593Z,17.05
2023-04-13T21:03:22.275Z,21.40
2023-04-13T21:06:11.390Z,18.88
2023-04-13T21:09:02.171Z,16.50
2023-04-13T21:11:51.084Z,15.27
2023-04-13T21:14:40.092Z,19.85
2023-04-13T21:17:28.967Z,20.20
2023-04-13T21:20:17.825Z,15.90
2023-04-13T21:23:06.703Z,19.67
2023-04-13T21:25:56.946Z,18.63
2023-04-13T21:28:46.090Z,15.30
2023-04-13T21:31:35.051Z,15.52
2023-04-13T21:34:27.363Z,18.75
2023-04-13T21:37:16.376Z,14.95
2023-04-13T21:40:05.746Z,14.75
2023-04-13T21:42:55.878Z,18.75
2023-04-13T21:45:44.662Z,20.20
2023-04-13T21:48:33.728Z,14.43
2023-04-13T21:51:22.834Z,11.80
2023-04-13T21:54:11.910Z,12.75
2023-04-13T21:57:00.948Z,14.30
2023-04-13T21:59:51.165Z,16.13
2023-04-13T22:02:40.184Z,11.95
2023-04-13T22:05:29.442Z,15.07
2023-04-13T22:08:18.278Z,14.18
2023-04-13T22:11:07.679Z,12.45
2023-04-13T22:13:56.320Z,14.60
2023-04-13T22:16:48.948Z,14.27
2023-04-13T22:19:37.748Z,14.68
2023-04-13T22:22:27.541Z,13.82
2023-04-13T22:25:16.508Z,13.77
2023-04-13T22:28:05.758Z,13.27
2023-04-13T22:30:54.788Z,13.55
2023-04-13T22:33:46.517Z,14.60
2023-04-13T22:36:36.604Z,14.50
2023-04-13T22:39:25.369Z,11.98
2023-04-13T22:42:14.337Z,12.05
2023-04-13T22:45:06.276Z,11.98
2023-04-13T22:47:55.069Z,13.93
2023-04-13T22:50:47.813Z,14.02
2023-04-13T22:53:36.567Z,14.30
2023-04-13T22:56:25.435Z,12.05
2023-04-13T22:59:14.333Z,13.65
2023-04-13T23:02:04.172Z,16.48
2023-04-13T23:04:53.262Z,13.15
2023-04-13T23:07:43.489Z,12.30
2023-04-13T23:10:32.813Z,11.93
2023-04-13T23:13:21.703Z,12.90
2023-04-13T23:16:11.699Z,11.50
2023-04-13T23:19:00.850Z,15.73
2023-04-13T23:21:49.971Z,11.32
2023-04-13T23:24:40.210Z,13.23
2023-04-13T23:27:28.817Z,12.43
2023-04-13T23:30:17.811Z,16.70
2023-04-13T23:33:06.614Z,13.57
2023-04-13T23:35:55.525Z,11.57
2023-04-13T23:38:44.785Z,11.63
2023-04-13T23:41:35.115Z,16.00
2023-04-13T23:44:23.869Z,12.25
2023-04-13T23:47:12.803Z,10.05
2023-04-13T23:50:02.155Z,10.23
2023-04-13T23:52:50.911Z,12.20
2023-04-13T23:55:39.717Z,11.63
2023-04-13T23:58:29.901Z,11.60
